createdAt,value
2019-02-26T00:00:56.882Z,164.63
2019-02-26T00:03:26.419Z,180.67
2019-02-26T00:05:56.805Z,178.57
2019-02-26T00:08:26.820Z,174.60
2019-02-26T00:10:58.530Z,170.40
2019-02-26T00:13:25.081Z,175.83
2019-02-26T00:15:53.876Z,179.20
2019-02-26T00:18:23.464Z,176.87
2019-02-26T00:20:51.354Z,178.93
2019-02-26T00:23:21.497Z,178.17
2019-02-26T00:25:48.932Z,177.53
2019-02-26T00:28:19.366Z,179.00
2019-02-26T00:30:46.782Z,170.43
2019-02-26T00:33:14.365Z,170.80
2019-02-26T00:35:43.787Z,165.47
2019-02-26T00:38:13.260Z,170.43
2019-02-26T00:40:43.135Z,162.80
2019-02-26T00:43:10.754Z,170.03
2019-02-26T00:45:39.070Z,158.70
2019-02-26T00:48:06.844Z,162.70
2019-02-26T00:50:35.578Z,173.07
2019-02-26T00:53:04.160Z,178.83
2019-02-26T00:55:34.896Z,165.43
2019-02-26T00:58:03.859Z,184.53
2019-02-26T01:00:33.290Z,166.40
2019-02-26T01:03:03.975Z,166.70
2019-02-26T01:05:31.732Z,164.10
2019-02-26T01:07:59.267Z,168.43
2019-02-26T01:10:27.045Z,164.40
2019-02-26T01:12:56.389Z,169.17
2019-02-26T01:15:23.873Z,160.63
2019-02-26T01:17:51.563Z,174.17
2019-02-26T01:20:22.662Z,162.43
2019-02-26T01:22:49.654Z,157.33
2019-02-26T01:25:18.491Z,164.90
2019-02-26T01:27:48.361Z,170.37
2019-02-26T01:30:21.101Z,171.70
2019-02-26T01:32:45.552Z,168.30
2019-02-26T01:35:13.310Z,165.07
2019-02-26T01:37:41.149Z,162.93
2019-02-26T01:40:13.189Z,174.33
2019-02-26T01:42:39.610Z,165.00
2019-02-26T01:45:10.408Z,167.37
2019-02-26T01:47:37.892Z,163.60
2019-02-26T01:50:09.374Z,172.07
2019-02-26T01:52:36.939Z,164.90
2019-02-26T01:55:06.853Z,163.13
2019-02-26T01:57:35.303Z,168.27
2019-02-26T02:00:09.838Z,164.40
2019-02-26T02:02:37.727Z,180.10
2019-02-26T02:05:07.097Z,179.27
2019-02-26T02:07:34.687Z,166.13
2019-02-26T02:10:03.253Z,171.83
2019-02-26T02:12:32.405Z,172.10
2019-02-26T02:15:00.315Z,174.13
2019-02-26T02:17:28.844Z,191.47
2019-02-26T02:19:57.543Z,177.97
2019-02-26T02:22:24.900Z,169.67
2019-02-26T02:24:53.977Z,175.43
2019-02-26T02:27:24.419Z,181.43
2019-02-26T02:29:52.950Z,183.60
2019-02-26T02:32:21.499Z,169.83
2019-02-26T02:34:50.158Z,194.80
2019-02-26T02:37:22.793Z,164.00
2019-02-26T02:39:47.066Z,190.27
2019-02-26T02:42:16.953Z,167.03
2019-02-26T02:44:44.842Z,173.70
2019-02-26T02:47:12.970Z,147.27
2019-02-26T02:49:42.452Z,156.27
2019-02-26T02:52:11.832Z,143.63
2019-02-26T02:54:41.098Z,171.70
2019-02-26T02:57:10.011Z,150.60
2019-02-26T02:59:41.730Z,156.77
2019-02-26T03:02:09.252Z,156.33
2019-02-26T03:04:36.622Z,161.90
2019-02-26T03:07:04.171Z,153.97
2019-02-26T03:09:35.397Z,170.57
2019-02-26T03:12:01.839Z,145.77
2019-02-26T03:14:32.457Z,153.20
2019-02-26T03:16:58.794Z,148.03
2019-02-26T03:19:26.362Z,153.27
2019-02-26T03:21:55.007Z,149.60
2019-02-26T03:24:25.369Z,153.60
2019-02-26T03:26:51.753Z,147.17
2019-02-26T03:29:19.228Z,156.13
2019-02-26T03:31:54.805Z,165.70
2019-02-26T03:34:21.815Z,167.07
2019-02-26T03:36:45.948Z,147.53
2019-02-26T03:39:13.497Z,157.73
2019-02-26T03:41:43.085Z,147.93
2019-02-26T03:46:30.845Z,143.30
2019-02-26T03:49:02.362Z,150.57
2019-02-26T03:51:27.771Z,144.83
2019-02-26T03:53:55.334Z,151.13
2019-02-26T03:56:23.017Z,153.63
2019-02-26T03:58:54.427Z,152.40
2019-02-26T04:01:21.566Z,148.77
2019-02-26T04:03:49.238Z,148.73
2019-02-26T04:06:16.592Z,146.43
2019-02-26T04:08:46.202Z,163.80
2019-02-26T04:11:13.802Z,143.10
2019-02-26T04:13:45.802Z,151.70
2019-02-26T04:16:14.036Z,149.90
2019-02-26T04:18:41.445Z,142.07
2019-02-26T04:21:11.757Z,147.80
2019-02-26T04:27:09.839Z,147.77
2019-02-26T04:29:51.280Z,157.17
2019-02-26T04:33:14.239Z,138.30
2019-02-26T04:36:39.677Z,147.97
2019-02-26T04:40:04.856Z,155.67
2019-02-26T04:43:54.813Z,145.63
2019-02-26T04:46:51.475Z,151.27
2019-02-26T04:49:19.707Z,155.80
2019-02-26T04:51:50.354Z,155.13
2019-02-26T04:54:21.561Z,170.87
2019-02-26T04:56:48.119Z,142.50
2019-02-26T04:59:17.625Z,155.33
2019-02-26T05:01:47.212Z,149.90
2019-02-26T05:04:16.455Z,157.20
2019-02-26T05:06:44.518Z,150.17
2019-02-26T05:09:11.997Z,163.70
2019-02-26T05:11:40.770Z,151.27
2019-02-26T05:14:11.712Z,155.23
2019-02-26T05:16:40.343Z,141.60
2019-02-26T05:19:10.405Z,157.20
2019-02-26T05:21:37.975Z,149.33
2019-02-26T05:24:05.475Z,158.77
2019-02-26T05:26:34.192Z,149.97
2019-02-26T05:29:05.868Z,161.70
2019-02-26T05:31:35.847Z,141.43
2019-02-26T05:34:02.630Z,163.33
2019-02-26T05:36:33.187Z,148.20
2019-02-26T05:39:02.174Z,166.47
2019-02-26T05:41:31.567Z,142.13
2019-02-26T05:44:01.886Z,163.63
2019-02-26T05:46:29.515Z,147.20
2019-02-26T05:48:57.067Z,147.80
2019-02-26T05:51:26.778Z,160.13
2019-02-26T05:53:53.711Z,148.50
2019-02-26T05:56:22.936Z,140.57
2019-02-26T05:58:50.651Z,156.10
2019-02-26T06:01:19.344Z,145.13
2019-02-26T06:03:49.714Z,141.97
2019-02-26T06:06:17.087Z,145.30
2019-02-26T06:08:46.954Z,144.50
2019-02-26T06:11:16.931Z,143.70
2019-02-26T06:13:44.118Z,148.97
2019-02-26T06:16:11.451Z,172.57
2019-02-26T06:18:41.219Z,151.67
2019-02-26T06:21:08.111Z,154.47
2019-02-26T06:23:36.718Z,140.80
2019-02-26T06:26:13.256Z,139.60
2019-02-26T06:28:38.450Z,152.40
2019-02-26T06:31:06.916Z,150.47
2019-02-26T06:33:36.257Z,143.13
2019-02-26T06:36:06.136Z,147.60
2019-02-26T06:38:35.044Z,148.07
2019-02-26T06:41:02.645Z,139.07
2019-02-26T06:43:30.947Z,139.73
2019-02-26T06:46:00.169Z,136.63
2019-02-26T06:48:29.794Z,138.63
2019-02-26T06:50:59.853Z,138.60
2019-02-26T06:53:27.564Z,149.73
2019-02-26T06:55:55.012Z,145.23
2019-02-26T06:58:27.052Z,134.73
2019-02-26T07:00:56.607Z,134.70
2019-02-26T07:03:24.776Z,135.13
2019-02-26T07:05:52.381Z,139.13
2019-02-26T07:08:21.923Z,141.90
2019-02-26T07:10:49.065Z,141.00
2019-02-26T07:13:17.994Z,138.37
2019-02-26T07:15:45.948Z,138.30
2019-02-26T07:18:19.660Z,145.33
2019-02-26T07:20:49.791Z,141.53
2019-02-26T07:23:16.501Z,135.27
2019-02-26T07:25:45.426Z,137.47
2019-02-26T07:28:13.006Z,141.33
2019-02-26T07:30:42.310Z,147.93
2019-02-26T07:33:12.166Z,145.87
2019-02-26T07:35:39.781Z,150.97
2019-02-26T07:38:07.305Z,147.07
2019-02-26T07:40:35.900Z,141.70
2019-02-26T07:43:06.959Z,142.47
2019-02-26T07:45:33.470Z,144.37
2019-02-26T07:48:01.069Z,148.03
2019-02-26T07:50:31.275Z,143.30
2019-02-26T07:52:59.447Z,144.70
2019-02-26T07:55:27.693Z,152.63
2019-02-26T07:57:55.332Z,140.53
2019-02-26T08:00:23.105Z,141.83
2019-02-26T08:02:52.045Z,147.43
2019-02-26T08:05:21.305Z,144.23
2019-02-26T08:07:51.960Z,153.37
2019-02-26T08:10:20.473Z,145.83
2019-02-26T08:12:47.905Z,162.57
2019-02-26T08:15:15.879Z,160.30
2019-02-26T08:17:45.648Z,145.90
2019-02-26T08:20:14.864Z,158.37
2019-02-26T08:22:43.438Z,153.50
2019-02-26T08:25:15.602Z,152.50
2019-02-26T08:27:43.766Z,153.87
2019-02-26T08:30:18.637Z,154.93
2019-02-26T08:32:48.337Z,158.37
2019-02-26T08:35:17.869Z,152.27
2019-02-26T08:37:42.954Z,158.33
2019-02-26T08:40:13.423Z,147.77
2019-02-26T08:42:40.921Z,159.27
2019-02-26T08:45:15.687Z,157.60
2019-02-26T08:47:44.262Z,160.57
2019-02-26T08:50:14.653Z,151.20
2019-02-26T08:52:44.228Z,152.67
2019-02-26T08:55:13.010Z,168.97
2019-02-26T08:57:41.083Z,149.50
2019-02-26T09:00:12.897Z,154.07
2019-02-26T09:02:41.209Z,150.57
2019-02-26T09:05:11.886Z,150.33
2019-02-26T09:07:42.713Z,148.37
2019-02-26T09:10:12.471Z,151.63
2019-02-26T09:12:41.923Z,150.53
2019-02-26T09:15:12.367Z,153.93
2019-02-26T09:17:41.994Z,161.07
2019-02-26T09:20:14.548Z,154.37
2019-02-26T09:22:45.735Z,146.83
2019-02-26T09:25:12.768Z,152.87
2019-02-26T09:27:42.936Z,149.07
2019-02-26T09:30:14.005Z,149.37
2019-02-26T09:32:44.751Z,142.77
2019-02-26T09:35:16.262Z,138.07
2019-02-26T09:37:45.349Z,148.97
2019-02-26T09:40:14.520Z,143.93
2019-02-26T09:42:43.751Z,150.53
2019-02-26T09:45:15.885Z,140.47
2019-02-26T09:47:44.931Z,138.67
2019-02-26T09:50:15.364Z,139.13
2019-02-26T09:52:43.145Z,143.07
2019-02-26T09:55:13.150Z,133.33
2019-02-26T09:57:40.780Z,139.67
2019-02-26T10:00:14.506Z,139.30
2019-02-26T10:02:44.710Z,136.73
2019-02-26T10:05:13.965Z,148.93
2019-02-26T10:07:42.710Z,143.13
2019-02-26T10:10:14.176Z,133.17
2019-02-26T10:12:41.854Z,138.53
2019-02-26T10:15:10.521Z,135.47
2019-02-26T10:17:40.158Z,140.30
2019-02-26T10:20:11.161Z,163.43
2019-02-26T10:22:40.476Z,145.93
2019-02-26T10:25:08.764Z,168.53
2019-02-26T10:27:38.807Z,149.97
2019-02-26T10:30:13.319Z,141.03
2019-02-26T10:32:39.804Z,152.43
2019-02-26T10:35:09.699Z,146.17
2019-02-26T10:37:50.446Z,146.00
2019-02-26T10:40:19.536Z,151.93
2019-02-26T10:42:47.355Z,148.63
2019-02-26T10:45:16.475Z,143.50
2019-02-26T10:47:43.939Z,149.37
2019-02-26T10:50:16.313Z,147.37
2019-02-26T10:52:44.599Z,151.57
2019-02-26T10:55:15.058Z,143.00
2019-02-26T10:57:41.681Z,151.03
2019-02-26T11:00:16.681Z,141.73
2019-02-26T11:02:48.330Z,150.13
2019-02-26T11:05:20.767Z,155.53
2019-02-26T11:07:48.456Z,148.97
2019-02-26T11:10:18.123Z,146.90
2019-02-26T11:12:45.826Z,165.10
2019-02-26T11:15:15.291Z,146.93
2019-02-26T11:17:43.804Z,150.57
2019-02-26T11:20:12.482Z,148.63
2019-02-26T11:22:42.241Z,146.57
2019-02-26T11:25:09.504Z,141.40
2019-02-26T11:27:38.026Z,146.03
2019-02-26T11:30:09.920Z,142.37
2019-02-26T11:32:39.841Z,144.10
2019-02-26T11:35:09.440Z,143.93
2019-02-26T11:37:37.007Z,148.70
2019-02-26T11:40:05.965Z,154.07
2019-02-26T11:42:33.516Z,144.47
2019-02-26T11:45:06.598Z,155.60
2019-02-26T11:47:36.699Z,145.17
2019-02-26T11:50:06.885Z,154.83
2019-02-26T11:52:36.498Z,151.70
2019-02-26T11:55:06.093Z,173.43
2019-02-26T11:57:37.045Z,154.43
2019-02-26T12:00:04.550Z,152.77
2019-02-26T12:02:37.015Z,145.77
2019-02-26T12:05:05.643Z,157.00
2019-02-26T12:07:34.836Z,146.43
2019-02-26T12:10:09.620Z,152.27
2019-02-26T12:12:36.161Z,156.67
2019-02-26T12:15:09.421Z,150.63
2019-02-26T12:17:38.269Z,151.90
2019-02-26T12:20:11.919Z,153.33
2019-02-26T12:22:41.200Z,149.77
2019-02-26T12:25:11.199Z,161.97
2019-02-26T12:27:40.808Z,153.93
2019-02-26T12:30:15.816Z,159.40
2019-02-26T12:32:47.202Z,161.10
2019-02-26T12:35:17.204Z,160.77
2019-02-26T12:37:43.277Z,152.40
2019-02-26T12:40:13.129Z,164.57
2019-02-26T12:42:41.035Z,170.23
2019-02-26T12:45:13.662Z,161.93
2019-02-26T12:47:41.145Z,156.73
2019-02-26T12:50:13.899Z,157.80
2019-02-26T12:52:42.346Z,151.63
2019-02-26T12:55:11.381Z,147.00
2019-02-26T12:57:39.183Z,160.87
2019-02-26T13:00:13.268Z,153.83
2019-02-26T13:02:43.379Z,162.00
2019-02-26T13:05:13.401Z,160.13
2019-02-26T13:07:41.661Z,155.40
2019-02-26T13:10:12.883Z,154.20
2019-02-26T13:12:40.385Z,149.90
2019-02-26T13:15:10.861Z,148.50
2019-02-26T13:17:38.210Z,145.27
2019-02-26T13:20:11.144Z,149.80
2019-02-26T13:22:45.613Z,147.27
2019-02-26T13:25:17.054Z,151.57
2019-02-26T13:27:43.676Z,150.90
2019-02-26T13:30:12.942Z,148.60
2019-02-26T13:32:55.311Z,140.63
2019-02-26T13:35:11.519Z,145.20
2019-02-26T13:37:41.922Z,148.87
2019-02-26T13:40:12.539Z,149.43
2019-02-26T13:42:40.320Z,149.87
2019-02-26T13:45:10.584Z,139.37
2019-02-26T13:47:39.206Z,146.23
2019-02-26T13:50:10.323Z,142.40
2019-02-26T13:52:38.687Z,144.27
2019-02-26T13:55:07.542Z,151.60
2019-02-26T13:57:34.904Z,143.47
2019-02-26T14:00:04.658Z,151.07
2019-02-26T14:02:32.885Z,147.60
2019-02-26T14:05:00.408Z,145.47
2019-02-26T14:07:27.857Z,156.67
2019-02-26T14:09:55.802Z,157.90
2019-02-26T14:12:23.462Z,143.77
2019-02-26T14:14:51.290Z,145.80
2019-02-26T14:17:19.785Z,150.23
2019-02-26T14:19:47.121Z,156.50
2019-02-26T14:22:15.357Z,146.90
2019-02-26T14:24:42.747Z,146.70
2019-02-26T14:27:12.353Z,141.83
2019-02-26T14:29:39.758Z,146.63
2019-02-26T14:32:07.580Z,142.00
2019-02-26T14:34:35.248Z,160.57
2019-02-26T14:37:02.944Z,146.57
2019-02-26T14:39:31.737Z,148.93
2019-02-26T14:42:00.141Z,137.27
2019-02-26T14:44:27.767Z,165.83
2019-02-26T14:46:55.658Z,138.57
2019-02-26T14:49:23.297Z,147.63
2019-02-26T14:51:51.986Z,135.73
2019-02-26T14:54:19.971Z,148.60
2019-02-26T14:56:49.606Z,142.37
2019-02-26T14:59:17.392Z,140.53
2019-02-26T15:01:45.023Z,135.13
2019-02-26T15:04:12.648Z,143.47
2019-02-26T15:06:40.165Z,129.17
2019-02-26T15:09:08.993Z,139.10
2019-02-26T15:11:36.853Z,135.47
2019-02-26T15:14:04.555Z,139.53
2019-02-26T15:16:32.423Z,130.50
2019-02-26T15:19:01.348Z,139.43
2019-02-26T15:21:28.788Z,155.83
2019-02-26T15:23:56.360Z,135.70
2019-02-26T15:26:24.153Z,136.90
2019-02-26T15:28:51.950Z,143.33
2019-02-26T15:31:19.488Z,133.57
2019-02-26T15:33:46.904Z,133.40
2019-02-26T15:36:15.762Z,132.63
2019-02-26T15:38:44.899Z,133.20
2019-02-26T15:41:12.422Z,131.10
2019-02-26T15:43:39.843Z,128.73
2019-02-26T15:46:07.390Z,122.70
2019-02-26T15:48:36.485Z,132.57
2019-02-26T15:54:01.855Z,154.87
2019-02-26T15:56:31.008Z,142.43
2019-02-26T15:59:04.531Z,142.87
2019-02-26T16:01:32.057Z,145.80
2019-02-26T16:04:00.596Z,148.73
2019-02-26T16:06:28.826Z,130.70
2019-02-26T16:08:58.062Z,128.87
2019-02-26T16:11:27.028Z,137.23
2019-02-26T16:13:57.424Z,137.80
2019-02-26T16:16:25.673Z,125.77
2019-02-26T16:18:53.032Z,133.77
2019-02-26T16:24:41.578Z,133.20
2019-02-26T16:27:09.391Z,126.27
2019-02-26T16:29:36.966Z,132.30
2019-02-26T16:32:04.963Z,130.17
2019-02-26T16:34:35.032Z,132.63
2019-02-26T16:37:03.274Z,123.77
2019-02-26T16:39:31.996Z,133.67
2019-02-26T16:42:00.579Z,131.33
2019-02-26T16:44:28.163Z,136.77
2019-02-26T16:46:56.121Z,119.07
2019-02-26T16:49:25.825Z,138.57
2019-02-26T16:51:54.932Z,128.57
2019-02-26T16:54:22.594Z,132.40
2019-02-26T16:56:50.252Z,146.57
2019-02-26T16:59:18.229Z,144.80
2019-02-26T17:01:45.618Z,127.70
2019-02-26T17:04:43.881Z,132.37
2019-02-26T17:07:11.610Z,126.87
2019-02-26T17:09:39.731Z,132.67
2019-02-26T17:12:07.517Z,125.27
2019-02-26T17:14:37.004Z,130.23
2019-02-26T17:17:04.661Z,124.17
2019-02-26T17:19:32.381Z,132.57
2019-02-26T17:22:01.843Z,125.23
2019-02-26T17:24:29.656Z,137.53
2019-02-26T17:26:57.348Z,131.30
2019-02-26T17:29:25.351Z,138.40
2019-02-26T17:31:52.794Z,127.87
2019-02-26T17:34:20.739Z,129.30
2019-02-26T17:36:49.670Z,122.43
2019-02-26T17:39:17.538Z,129.60
2019-02-26T17:41:45.329Z,150.53
2019-02-26T17:44:13.512Z,133.67
2019-02-26T17:46:41.198Z,128.60
2019-02-26T17:49:08.931Z,133.83
2019-02-26T17:51:36.517Z,124.50
2019-02-26T17:54:04.675Z,132.33
2019-02-26T17:56:34.328Z,124.77
2019-02-26T17:59:03.917Z,139.73
2019-02-26T18:01:34.400Z,126.00
2019-02-26T18:04:22.648Z,138.53
2019-02-26T18:06:46.051Z,139.37
2019-02-26T18:09:13.673Z,130.33
2019-02-26T18:11:44.491Z,125.07
2019-02-26T18:14:12.024Z,134.27
2019-02-26T18:16:41.613Z,123.33
2019-02-26T18:19:12.141Z,147.63
2019-02-26T18:22:27.718Z,127.00
2019-02-26T18:24:55.746Z,140.10
2019-02-26T18:27:23.206Z,126.73
2019-02-26T18:29:50.891Z,136.20
2019-02-26T18:32:18.350Z,128.10
2019-02-26T18:34:45.955Z,132.90
2019-02-26T18:37:13.697Z,121.77
2019-02-26T18:39:42.246Z,133.30
2019-02-26T18:42:12.799Z,118.50
2019-02-26T18:44:40.901Z,136.90
2019-02-26T18:47:08.349Z,121.53
2019-02-26T18:49:35.843Z,133.87
2019-02-26T18:52:03.373Z,115.77
2019-02-26T18:54:31.077Z,127.60
2019-02-26T18:56:58.742Z,118.07
2019-02-26T18:59:26.572Z,131.87
2019-02-26T19:01:54.089Z,122.83
2019-02-26T19:04:21.574Z,131.83
2019-02-26T19:06:49.007Z,119.03
2019-02-26T19:09:17.270Z,132.67
2019-02-26T19:11:44.913Z,129.00
2019-02-26T19:14:13.387Z,133.70
2019-02-26T19:16:40.836Z,128.73
2019-02-26T19:19:09.097Z,147.57
2019-02-26T19:21:37.322Z,131.87
2019-02-26T19:24:05.549Z,134.90
2019-02-26T19:26:36.127Z,125.70
2019-02-26T19:29:05.507Z,130.00
2019-02-26T19:31:35.197Z,120.77
2019-02-26T19:34:05.935Z,145.30
2019-02-26T19:36:33.870Z,126.10
2019-02-26T19:39:02.070Z,127.50
2019-02-26T19:41:31.506Z,126.43
2019-02-26T19:44:00.124Z,124.23
2019-02-26T19:46:28.146Z,142.80
2019-02-26T19:48:55.603Z,129.73
2019-02-26T19:51:25.474Z,141.47
2019-02-26T19:53:54.301Z,132.10
2019-02-26T19:56:23.592Z,129.30
2019-02-26T19:58:53.144Z,129.03
2019-02-26T20:01:25.440Z,130.67
2019-02-26T20:03:51.833Z,130.87
2019-02-26T20:06:23.323Z,137.20
2019-02-26T20:08:51.110Z,122.80
2019-02-26T20:11:22.406Z,126.57
2019-02-26T20:13:50.593Z,124.87
2019-02-26T20:16:19.080Z,121.67
2019-02-26T20:18:46.685Z,116.87
2019-02-26T20:21:16.845Z,120.90
2019-02-26T20:23:46.398Z,139.10
2019-02-26T20:26:16.465Z,131.73
2019-02-26T20:28:43.455Z,139.47
2019-02-26T20:31:12.824Z,140.20
2019-02-26T20:33:40.189Z,124.17
2019-02-26T20:36:07.546Z,129.97
2019-02-26T20:38:35.337Z,131.10
2019-02-26T20:41:02.856Z,137.43
2019-02-26T20:43:30.728Z,130.20
2019-02-26T20:45:59.718Z,187.87
2019-02-26T20:48:27.233Z,133.43
2019-02-26T20:50:56.541Z,178.13
2019-02-26T20:53:24.477Z,129.03
2019-02-26T20:56:48.246Z,140.67
2019-02-26T20:59:17.839Z,135.13
2019-02-26T21:01:45.085Z,133.63
2019-02-26T21:04:13.732Z,150.70
2019-02-26T21:06:41.552Z,140.17
2019-02-26T21:09:11.166Z,142.37
2019-02-26T21:11:41.419Z,132.57
2019-02-26T21:14:09.208Z,145.90
2019-02-26T21:16:37.094Z,123.80
2019-02-26T21:19:06.434Z,141.47
2019-02-26T21:21:35.789Z,129.33
2019-02-26T21:24:03.692Z,151.27
2019-02-26T21:26:31.867Z,130.97
2019-02-26T21:28:59.594Z,137.00
2019-02-26T21:31:27.149Z,137.23
2019-02-26T21:33:54.816Z,141.07
2019-02-26T21:37:12.131Z,144.00
2019-02-26T21:39:38.808Z,143.90
2019-02-26T21:42:06.214Z,125.00
2019-02-26T21:44:33.824Z,145.83
2019-02-26T21:47:01.349Z,132.63
2019-02-26T21:49:29.220Z,144.53
2019-02-26T21:51:57.893Z,135.07
2019-02-26T21:58:09.012Z,130.83
2019-02-26T22:00:39.140Z,130.53
2019-02-26T22:03:07.189Z,127.63
2019-02-26T22:05:37.455Z,130.50
2019-02-26T22:08:04.380Z,135.83
2019-02-26T22:10:31.978Z,131.60
2019-02-26T22:12:59.450Z,142.97
2019-02-26T22:15:27.049Z,132.53
2019-02-26T22:17:55.705Z,138.07
2019-02-26T22:20:35.801Z,131.47
2019-02-26T22:22:57.868Z,133.77
2019-02-26T22:25:25.622Z,130.73
2019-02-26T22:27:53.091Z,132.40
2019-02-26T22:30:22.040Z,128.00
2019-02-26T22:32:50.010Z,135.30
2019-02-26T22:35:17.389Z,123.47
2019-02-26T22:37:45.749Z,124.97
2019-02-26T22:40:13.517Z,123.57
2019-02-26T22:42:41.885Z,133.67
2019-02-26T22:45:10.016Z,130.50
2019-02-26T22:47:40.407Z,125.80
2019-02-26T22:50:09.819Z,128.80
2019-02-26T22:52:37.329Z,134.97
2019-02-26T22:55:06.126Z,131.37
2019-02-26T22:57:33.778Z,129.03
2019-02-26T23:00:01.757Z,133.90
2019-02-26T23:02:31.425Z,138.27
2019-02-26T23:04:58.834Z,131.90
2019-02-26T23:07:26.404Z,139.40
2019-02-26T23:09:54.000Z,155.90
2019-02-26T23:12:22.802Z,129.13
2019-02-26T23:14:50.418Z,141.00
2019-02-26T23:17:18.624Z,131.50
2019-02-26T23:19:46.407Z,139.73
2019-02-26T23:22:14.072Z,140.97
2019-02-26T23:24:41.753Z,144.03
2019-02-26T23:27:09.558Z,136.07
2019-02-26T23:29:42.451Z,148.40
2019-02-26T23:32:10.112Z,135.37
2019-02-26T23:34:37.733Z,160.53
2019-02-26T23:37:06.043Z,130.97
2019-02-26T23:39:33.602Z,140.40
2019-02-26T23:42:05.854Z,135.50
2019-02-26T23:44:32.747Z,139.67
2019-02-26T23:47:02.052Z,155.47
2019-02-26T23:49:29.791Z,155.93
2019-02-26T23:51:57.160Z,132.50
2019-02-26T23:54:24.589Z,139.40
2019-02-26T23:56:53.958Z,134.83
2019-02-26T23:59:21.442Z,142.17
